createdAt,value
2023-04-19T00:00:44.261Z,102130.03
2023-04-19T00:03:11.585Z,102123.22
2023-04-19T00:05:41.596Z,102113.72
2023-04-19T00:08:08.393Z,102115.28
2023-04-19T00:10:39.815Z,102110.66
2023-04-19T00:13:06.714Z,102118.03
2023-04-19T00:15:35.044Z,102116.97
2023-04-19T00:18:01.600Z,102107.63
2023-04-19T00:20:28.138Z,102105.06
2023-04-19T00:22:54.784Z,102100.63
2023-04-19T00:25:21.219Z,102101.72
2023-04-19T00:27:47.826Z,102094.38
2023-04-19T00:30:14.579Z,102109.56
2023-04-19T00:32:41.118Z,102106.84
2023-04-19T00:35:07.933Z,102101.00
2023-04-19T00:37:34.402Z,102106.38
2023-04-19T00:40:00.844Z,102095.59
2023-04-19T00:42:27.330Z,102096.53
2023-04-19T00:44:53.889Z,102110.03
2023-04-19T00:47:20.543Z,102108.41
2023-04-19T00:49:47.158Z,102105.91
2023-04-19T00:52:14.205Z,102105.59
2023-04-19T00:54:43.520Z,102104.19
2023-04-19T00:57:10.054Z,102106.06
2023-04-19T00:59:36.887Z,102098.41
2023-04-19T01:02:03.546Z,102104.78
2023-04-19T01:04:30.298Z,102101.53
2023-04-19T01:07:25.174Z,102107.22
2023-04-19T01:09:51.624Z,102101.34
2023-04-19T01:12:18.159Z,102109.53
2023-04-19T01:14:44.833Z,102110.94
2023-04-19T01:17:13.687Z,102113.84
2023-04-19T01:19:40.180Z,102112.28
2023-04-19T01:22:07.139Z,102119.44
2023-04-19T01:24:34.413Z,102106.25
2023-04-19T01:27:02.216Z,102109.78
2023-04-19T01:29:28.793Z,102109.25
2023-04-19T01:31:55.220Z,102116.34
2023-04-19T01:34:23.220Z,102111.38
2023-04-19T01:36:49.944Z,102102.50
2023-04-19T01:39:16.673Z,102101.34
2023-04-19T01:41:43.140Z,102102.31
2023-04-19T01:44:09.708Z,102102.00
2023-04-19T01:46:38.790Z,102103.28
2023-04-19T01:49:05.401Z,102090.69
2023-04-19T01:51:31.854Z,102090.28
2023-04-19T01:53:58.482Z,102101.88
2023-04-19T01:56:25.143Z,102089.78
2023-04-19T01:58:51.625Z,102088.63
2023-04-19T02:01:18.147Z,102094.16
2023-04-19T02:03:44.840Z,102091.41
2023-04-19T02:06:12.684Z,102091.72
2023-04-19T02:08:39.984Z,102086.88
2023-04-19T02:11:11.402Z,102082.28
2023-04-19T02:13:37.898Z,102084.69
2023-04-19T02:16:05.961Z,102077.50
2023-04-19T02:18:33.371Z,102082.84
2023-04-19T02:20:59.823Z,102076.22
2023-04-19T02:23:26.267Z,102073.56
2023-04-19T02:25:53.441Z,102083.19
2023-04-19T02:28:19.941Z,102077.66
2023-04-19T02:30:46.848Z,102074.22
2023-04-19T02:33:13.401Z,102066.63
2023-04-19T02:35:39.850Z,102066.50
2023-04-19T02:38:06.424Z,102073.13
2023-04-19T02:40:33.048Z,102073.94
2023-04-19T02:42:59.553Z,102064.28
2023-04-19T02:45:26.058Z,102057.22
2023-04-19T02:47:52.685Z,102051.81
2023-04-19T02:50:19.216Z,102052.06
2023-04-19T02:52:45.964Z,102052.63
2023-04-19T02:55:12.546Z,102048.41
2023-04-19T02:57:39.146Z,102047.84
2023-04-19T03:00:06.442Z,102052.53
2023-04-19T03:02:33.058Z,102040.75
2023-04-19T03:04:59.627Z,102043.41
2023-04-19T03:07:26.192Z,102042.53
2023-04-19T03:09:52.682Z,102039.19
2023-04-19T03:12:19.213Z,102033.75
2023-04-19T03:14:45.630Z,102029.38
2023-04-19T03:17:12.081Z,102027.88
2023-04-19T03:19:38.707Z,102020.00
2023-04-19T03:22:05.274Z,102020.22
2023-04-19T03:24:31.896Z,102020.28
2023-04-19T03:26:58.380Z,102024.66
2023-04-19T03:29:24.989Z,102020.84
2023-04-19T03:31:51.421Z,102017.00
2023-04-19T03:34:18.152Z,102012.06
2023-04-19T03:36:44.702Z,102002.34
2023-04-19T03:39:11.272Z,102003.41
2023-04-19T03:41:37.736Z,101998.13
2023-04-19T03:44:04.366Z,101993.69
2023-04-19T03:46:31.697Z,101992.69
2023-04-19T03:48:58.905Z,102000.09
2023-04-19T03:51:25.458Z,101991.09
2023-04-19T03:53:51.878Z,101995.47
2023-04-19T03:56:18.380Z,101997.31
2023-04-19T03:58:44.807Z,102006.38
2023-04-19T04:01:21.468Z,101994.31
2023-04-19T04:03:48.490Z,102003.81
2023-04-19T04:06:15.700Z,101987.31
2023-04-19T04:08:42.167Z,101994.38
2023-04-19T04:11:08.670Z,101997.69
2023-04-19T04:13:35.197Z,101995.16
2023-04-19T04:16:01.901Z,102004.03
2023-04-19T04:18:28.622Z,102007.53
2023-04-19T04:20:55.548Z,102000.72
2023-04-19T04:23:22.114Z,102001.75
2023-04-19T04:25:57.972Z,101998.06
2023-04-19T04:28:24.503Z,102000.13
2023-04-19T04:30:51.861Z,101992.19
2023-04-19T04:33:18.458Z,101989.88
2023-04-19T04:35:44.922Z,101994.72
2023-04-19T04:38:23.530Z,102001.34
2023-04-19T04:40:53.650Z,101991.31
2023-04-19T04:43:21.827Z,101983.28
2023-04-19T04:45:48.478Z,101981.50
2023-04-19T04:48:15.280Z,101981.38
2023-04-19T04:50:42.164Z,101972.34
2023-04-19T04:53:08.924Z,101971.38
2023-04-19T04:55:36.472Z,101967.75
2023-04-19T04:58:05.182Z,101973.59
2023-04-19T05:00:32.224Z,101976.53
2023-04-19T05:02:59.312Z,101976.25
2023-04-19T05:05:26.226Z,101969.53
2023-04-19T05:07:52.663Z,101973.00
2023-04-19T05:10:19.139Z,101962.03
2023-04-19T05:12:45.672Z,101962.59
2023-04-19T05:15:12.150Z,101967.50
2023-04-19T05:17:38.743Z,101964.22
2023-04-19T05:20:06.037Z,101966.34
2023-04-19T05:22:32.491Z,101967.59
2023-04-19T05:24:58.987Z,101958.44
2023-04-19T05:27:25.796Z,101953.91
2023-04-19T05:29:52.769Z,101955.44
2023-04-19T05:32:19.531Z,101956.00
2023-04-19T05:34:46.141Z,101948.44
2023-04-19T05:37:12.642Z,101939.72
2023-04-19T05:39:39.083Z,101945.19
2023-04-19T05:42:05.565Z,101946.25
2023-04-19T05:44:32.006Z,101944.97
2023-04-19T05:46:58.477Z,101939.75
2023-04-19T05:49:24.923Z,101939.38
2023-04-19T05:51:51.684Z,101934.97
2023-04-19T05:54:18.394Z,101938.03
2023-04-19T05:56:45.323Z,101944.81
2023-04-19T05:59:11.780Z,101940.91
2023-04-19T06:01:38.297Z,101942.16
2023-04-19T06:04:05.043Z,101952.28
2023-04-19T06:06:31.756Z,101953.25
2023-04-19T06:08:58.254Z,101950.84
2023-04-19T06:11:34.847Z,101942.38
2023-04-19T06:14:06.193Z,101941.00
2023-04-19T06:16:32.820Z,101950.38
2023-04-19T06:18:59.429Z,101945.75
2023-04-19T06:21:26.942Z,101938.56
2023-04-19T06:23:53.414Z,101949.91
2023-04-19T06:26:20.050Z,101938.28
2023-04-19T06:28:46.490Z,101940.72
2023-04-19T06:31:13.011Z,101931.44
2023-04-19T06:33:39.588Z,101938.53
2023-04-19T06:36:06.254Z,101942.72
2023-04-19T06:38:32.806Z,101941.31
2023-04-19T06:40:59.222Z,101928.75
2023-04-19T06:43:25.800Z,101927.31
2023-04-19T06:46:02.894Z,101932.81
2023-04-19T06:48:29.414Z,101924.78
2023-04-19T06:50:55.958Z,101925.56
2023-04-19T06:53:22.786Z,101924.03
2023-04-19T06:55:49.515Z,101920.53
2023-04-19T06:58:15.985Z,101915.09
2023-04-19T07:00:42.542Z,101907.22
2023-04-19T07:03:09.209Z,101907.97
2023-04-19T07:05:36.419Z,101906.59
2023-04-19T07:08:03.196Z,101898.69
2023-04-19T07:10:29.741Z,101897.06
2023-04-19T07:12:56.330Z,101889.38
2023-04-19T07:15:22.869Z,101885.25
2023-04-19T07:17:49.351Z,101884.00
2023-04-19T07:20:16.043Z,101887.38
2023-04-19T07:22:42.615Z,101878.78
2023-04-19T07:25:09.516Z,101867.22
2023-04-19T07:27:35.991Z,101869.28
2023-04-19T07:30:02.882Z,101870.56
2023-04-19T07:32:31.342Z,101866.38
2023-04-19T07:34:57.829Z,101863.50
2023-04-19T07:37:24.305Z,101856.53
2023-04-19T07:39:50.982Z,101858.47
2023-04-19T07:42:17.526Z,101855.84
2023-04-19T07:44:44.025Z,101847.06
2023-04-19T07:47:10.830Z,101841.34
2023-04-19T07:49:37.718Z,101830.00
2023-04-19T07:52:07.748Z,101835.50
2023-04-19T07:54:34.549Z,101831.06
2023-04-19T07:57:01.035Z,101839.63
2023-04-19T07:59:27.680Z,101824.56
2023-04-19T08:01:54.185Z,101831.78
2023-04-19T08:04:23.239Z,101827.59
2023-04-19T08:06:50.202Z,101825.34
2023-04-19T08:09:16.797Z,101825.19
2023-04-19T08:11:43.348Z,101825.84
2023-04-19T08:14:21.800Z,101815.81
2023-04-19T08:17:22.062Z,101815.94
2023-04-19T08:19:42.956Z,101817.69
2023-04-19T08:22:09.562Z,101815.25
2023-04-19T08:24:36.101Z,101808.25
2023-04-19T08:27:02.670Z,101803.56
2023-04-19T08:29:29.164Z,101808.44
2023-04-19T08:31:55.697Z,101798.56
2023-04-19T08:34:22.368Z,101800.41
2023-04-19T08:36:56.215Z,101805.97
2023-04-19T08:39:33.589Z,101799.88
2023-04-19T08:42:12.598Z,101795.28
2023-04-19T08:45:02.181Z,101796.50
2023-04-19T08:47:34.211Z,101789.75
2023-04-19T08:50:17.481Z,101790.28
2023-04-19T08:52:58.519Z,101798.16
2023-04-19T08:55:28.110Z,101798.25
2023-04-19T08:57:54.650Z,101799.81
2023-04-19T09:00:21.660Z,101775.63
2023-04-19T09:02:53.276Z,101780.97
2023-04-19T09:05:20.400Z,101773.53
2023-04-19T09:07:47.541Z,101766.50
2023-04-19T09:10:19.451Z,101769.34
2023-04-19T09:13:03.147Z,101763.69
2023-04-19T09:15:41.977Z,101746.69
2023-04-19T09:18:12.287Z,101747.78
2023-04-19T09:20:40.729Z,101744.47
2023-04-19T09:23:09.589Z,101720.44
2023-04-19T09:25:55.445Z,101739.50
2023-04-19T09:28:23.915Z,101734.50
2023-04-19T09:31:00.625Z,101736.25
2023-04-19T09:33:39.862Z,101751.00
2023-04-19T09:36:07.826Z,101737.63
2023-04-19T09:38:48.257Z,101744.53
2023-04-19T09:41:14.908Z,101740.97
2023-04-19T09:46:38.158Z,101736.41
2023-04-19T09:49:22.984Z,101734.94
2023-04-19T09:51:56.305Z,101731.94
2023-04-19T09:54:24.636Z,101726.78
2023-04-19T09:56:54.062Z,101718.72
2023-04-19T09:59:23.284Z,101716.03
2023-04-19T10:01:56.221Z,101708.69
2023-04-19T10:04:37.747Z,101710.94
2023-04-19T10:07:29.033Z,101708.44
2023-04-19T10:10:02.350Z,101698.31
2023-04-19T10:12:54.879Z,101688.69
2023-04-19T10:15:23.729Z,101684.34
2023-04-19T10:17:50.984Z,101695.09
2023-04-19T10:20:22.982Z,101685.53
2023-04-19T10:22:49.973Z,101680.53
2023-04-19T10:25:16.993Z,101674.75
2023-04-19T10:27:49.058Z,101673.97
2023-04-19T10:30:21.051Z,101678.47
2023-04-19T10:32:54.169Z,101673.38
2023-04-19T10:35:22.028Z,101670.63
2023-04-19T10:38:10.166Z,101673.28
2023-04-19T10:41:04.452Z,101674.22
2023-04-19T10:43:35.360Z,101665.72
2023-04-19T10:46:08.852Z,101669.56
2023-04-19T10:48:40.717Z,101676.41
2023-04-19T10:51:15.693Z,101669.22
2023-04-19T10:53:50.868Z,101674.69
2023-04-19T10:56:59.874Z,101669.63
2023-04-19T10:59:27.657Z,101655.56
2023-04-19T11:01:56.827Z,101665.94
2023-04-19T11:04:43.581Z,101674.31
2023-04-19T11:07:10.102Z,101659.25
2023-04-19T11:09:39.564Z,101659.25
2023-04-19T11:12:08.484Z,101652.16
2023-04-19T11:14:41.884Z,101660.00
2023-04-19T11:17:39.560Z,101653.78
2023-04-19T11:20:10.201Z,101656.50
2023-04-19T11:22:40.731Z,101641.09
2023-04-19T11:25:10.494Z,101647.44
2023-04-19T11:27:38.236Z,101639.22
2023-04-19T11:30:07.046Z,101636.59
2023-04-19T11:32:34.201Z,101643.19
2023-04-19T11:35:08.842Z,101639.00
2023-04-19T11:37:36.654Z,101639.06
2023-04-19T11:40:05.630Z,101639.81
2023-04-19T11:42:33.063Z,101630.16
2023-04-19T11:44:59.949Z,101629.28
2023-04-19T11:47:27.206Z,101622.53
2023-04-19T11:49:56.468Z,101612.28
2023-04-19T11:52:26.309Z,101615.38
2023-04-19T11:54:53.539Z,101619.25
2023-04-19T11:57:30.704Z,101624.81
2023-04-19T12:00:11.725Z,101613.16
2023-04-19T12:02:40.186Z,101629.56
2023-04-19T12:05:11.726Z,101618.00
2023-04-19T12:07:56.965Z,101613.84
2023-04-19T12:10:23.517Z,101607.25
2023-04-19T12:12:49.974Z,101606.72
2023-04-19T12:15:16.718Z,101607.81
2023-04-19T12:18:02.739Z,101603.75
2023-04-19T12:20:34.515Z,101597.88
2023-04-19T12:23:01.006Z,101593.44
2023-04-19T12:25:32.250Z,101601.09
2023-04-19T12:28:00.611Z,101585.78
2023-04-19T12:30:27.335Z,101588.28
2023-04-19T12:32:55.643Z,101587.78
2023-04-19T12:35:24.357Z,101581.41
2023-04-19T12:37:51.889Z,101580.56
2023-04-19T12:40:18.316Z,101573.88
2023-04-19T12:42:44.853Z,101576.19
2023-04-19T12:45:13.265Z,101573.47
2023-04-19T12:47:41.096Z,101575.06
2023-04-19T12:50:08.944Z,101565.56
2023-04-19T12:52:35.541Z,101564.31
2023-04-19T12:55:02.726Z,101557.47
2023-04-19T12:57:30.139Z,101556.66
2023-04-19T12:59:56.612Z,101546.31
2023-04-19T13:02:23.189Z,101543.25
2023-04-19T13:04:49.998Z,101541.59
2023-04-19T13:07:16.605Z,101539.22
2023-04-19T13:09:43.275Z,101552.38
2023-04-19T13:12:09.798Z,101549.72
2023-04-19T13:14:36.337Z,101538.47
2023-04-19T13:17:02.846Z,101535.38
2023-04-19T13:19:29.272Z,101522.63
2023-04-19T13:21:55.750Z,101517.13
2023-04-19T13:24:22.244Z,101506.47
2023-04-19T13:26:48.712Z,101507.88
2023-04-19T13:29:15.178Z,101489.38
2023-04-19T13:31:43.616Z,101481.06
2023-04-19T13:34:10.489Z,101492.34
2023-04-19T13:36:37.686Z,101501.41
2023-04-19T13:39:05.286Z,101484.28
2023-04-19T13:41:32.923Z,101481.69
2023-04-19T13:43:59.364Z,101495.41
2023-04-19T13:46:25.858Z,101487.81
2023-04-19T13:48:52.358Z,101488.03
2023-04-19T13:51:19.121Z,101477.59
2023-04-19T13:53:45.612Z,101493.31
2023-04-19T13:56:12.115Z,101488.25
2023-04-19T13:58:38.765Z,101481.13
2023-04-19T14:01:05.390Z,101488.91
2023-04-19T14:03:32.077Z,101486.13
2023-04-19T14:05:58.826Z,101490.09
2023-04-19T14:08:25.669Z,101489.88
2023-04-19T14:10:52.165Z,101494.91
2023-04-19T14:13:18.750Z,101491.72
2023-04-19T14:15:45.271Z,101512.09
2023-04-19T14:18:11.768Z,101494.75
2023-04-19T14:20:38.274Z,101490.41
2023-04-19T14:23:04.795Z,101478.16
2023-04-19T14:25:31.321Z,101466.00
2023-04-19T14:27:59.417Z,101471.38
2023-04-19T14:30:26.279Z,101466.88
2023-04-19T14:32:53.098Z,101456.81
2023-04-19T14:35:20.072Z,101456.94
2023-04-19T14:37:46.746Z,101463.13
2023-04-19T14:40:13.335Z,101460.44
2023-04-19T14:42:39.963Z,101449.38
2023-04-19T14:45:07.157Z,101445.63
2023-04-19T14:47:34.358Z,101447.19
2023-04-19T14:50:00.862Z,101456.78
2023-04-19T14:52:27.537Z,101446.34
2023-04-19T14:54:54.184Z,101438.44
2023-04-19T14:57:20.780Z,101435.16
2023-04-19T14:59:47.197Z,101432.38
2023-04-19T15:02:13.980Z,101434.31
2023-04-19T15:04:41.495Z,101437.16
2023-04-19T15:07:08.543Z,101447.09
2023-04-19T15:09:35.066Z,101448.03
2023-04-19T15:12:01.816Z,101448.78
2023-04-19T15:14:28.587Z,101451.91
2023-04-19T15:16:55.087Z,101465.69
2023-04-19T15:19:21.670Z,101457.66
2023-04-19T15:21:48.103Z,101464.13
2023-04-19T15:24:14.548Z,101464.63
2023-04-19T15:26:43.558Z,101463.97
2023-04-19T15:29:10.785Z,101475.50
2023-04-19T15:31:37.425Z,101491.78
2023-04-19T15:34:04.151Z,101492.38
2023-04-19T15:36:31.104Z,101509.59
2023-04-19T15:39:00.579Z,101515.78
2023-04-19T15:41:27.121Z,101519.78
2023-04-19T15:43:53.546Z,101523.31
2023-04-19T15:46:20.280Z,101525.31
2023-04-19T15:48:48.458Z,101533.09
2023-04-19T15:51:15.432Z,101520.13
2023-04-19T15:53:42.078Z,101524.34
2023-04-19T15:56:08.678Z,101516.78
2023-04-19T15:58:35.101Z,101518.84
2023-04-19T16:01:01.663Z,101514.34
2023-04-19T16:03:28.784Z,101513.00
2023-04-19T16:05:55.625Z,101513.75
2023-04-19T16:08:22.160Z,101510.66
2023-04-19T16:10:49.411Z,101497.09
2023-04-19T16:13:16.884Z,101503.97
2023-04-19T16:15:44.282Z,101487.78
2023-04-19T16:18:12.132Z,101482.34
2023-04-19T16:20:39.948Z,101470.50
2023-04-19T16:23:06.555Z,101476.50
2023-04-19T16:25:33.509Z,101466.75
2023-04-19T16:28:00.339Z,101456.34
2023-04-19T16:30:26.908Z,101464.41
2023-04-19T16:32:57.876Z,101462.63
2023-04-19T16:35:25.475Z,101446.41
2023-04-19T16:37:54.598Z,101455.59
2023-04-19T16:40:22.840Z,101454.75
2023-04-19T16:42:49.336Z,101453.53
2023-04-19T16:45:17.612Z,101450.28
2023-04-19T16:47:46.075Z,101448.38
2023-04-19T16:50:14.255Z,101453.34
2023-04-19T16:52:41.063Z,101448.69
2023-04-19T16:55:08.131Z,101439.59
2023-04-19T16:57:34.740Z,101449.91
2023-04-19T17:00:01.277Z,101451.22
2023-04-19T17:02:28.062Z,101437.78
2023-04-19T17:04:56.175Z,101435.06
2023-04-19T17:07:22.810Z,101435.16
2023-04-19T17:09:49.354Z,101438.63
2023-04-19T17:12:15.774Z,101434.84
2023-04-19T17:14:42.270Z,101434.00
2023-04-19T17:17:08.723Z,101430.78
2023-04-19T17:19:36.296Z,101427.19
2023-04-19T17:22:05.447Z,101423.97
2023-04-19T17:24:32.995Z,101423.56
2023-04-19T17:27:00.255Z,101423.78
2023-04-19T17:29:27.465Z,101426.50
2023-04-19T17:31:54.228Z,101421.78
2023-04-19T17:34:20.824Z,101425.03
2023-04-19T17:36:47.323Z,101426.94
2023-04-19T17:39:14.202Z,101424.06
2023-04-19T17:41:41.437Z,101416.66
2023-04-19T17:44:07.966Z,101427.69
2023-04-19T17:46:34.477Z,101418.28
2023-04-19T17:49:01.273Z,101409.34
2023-04-19T17:51:27.836Z,101406.53
2023-04-19T17:53:54.569Z,101424.03
2023-04-19T17:56:21.339Z,101419.31
2023-04-19T17:58:47.795Z,101411.34
2023-04-19T18:01:16.148Z,101419.97
2023-04-19T18:03:42.902Z,101417.38
2023-04-19T18:06:10.606Z,101418.19
2023-04-19T18:08:37.060Z,101424.56
2023-04-19T18:11:03.596Z,101425.84
2023-04-19T18:13:30.061Z,101429.50
2023-04-19T18:15:56.563Z,101426.88
2023-04-19T18:18:23.322Z,101422.19
2023-04-19T18:20:50.348Z,101420.13
2023-04-19T18:23:16.791Z,101417.84
2023-04-19T18:25:43.271Z,101420.66
2023-04-19T18:28:09.784Z,101416.91
2023-04-19T18:30:36.248Z,101424.56
2023-04-19T18:33:02.782Z,101422.88
2023-04-19T18:35:29.784Z,101423.25
2023-04-19T18:37:56.336Z,101410.25
2023-04-19T18:40:22.869Z,101409.88
2023-04-19T18:42:49.338Z,101421.91
2023-04-19T18:45:15.891Z,101427.38
2023-04-19T18:47:42.492Z,101415.59
2023-04-19T18:50:09.554Z,101414.69
2023-04-19T18:52:36.794Z,101421.31
2023-04-19T18:55:04.749Z,101420.28
2023-04-19T18:57:34.487Z,101430.34
2023-04-19T19:00:02.457Z,101424.38
2023-04-19T19:02:29.222Z,101428.09
2023-04-19T19:04:58.261Z,101427.88
2023-04-19T19:07:36.425Z,101420.28
2023-04-19T19:10:16.945Z,101425.03
2023-04-19T19:12:45.806Z,101428.72
2023-04-19T19:15:13.171Z,101431.38
2023-04-19T19:17:39.771Z,101426.56
2023-04-19T19:20:07.157Z,101433.38
2023-04-19T19:22:34.113Z,101432.34
2023-04-19T19:25:01.407Z,101433.59
2023-04-19T19:27:28.229Z,101438.69
2023-04-19T19:29:55.295Z,101436.66
2023-04-19T19:32:22.020Z,101432.91
2023-04-19T19:37:19.105Z,101438.50
2023-04-19T19:39:46.482Z,101440.97
2023-04-19T19:42:16.203Z,101442.59
2023-04-19T19:44:42.952Z,101437.69
2023-04-19T19:47:10.756Z,101427.88
2023-04-19T19:52:07.209Z,101451.75
2023-04-19T19:54:33.847Z,101455.03
2023-04-19T19:57:56.707Z,101446.13
2023-04-19T19:59:52.675Z,101448.22
2023-04-19T20:02:22.796Z,101456.84
2023-04-19T20:04:50.050Z,101454.19
2023-04-19T20:09:46.078Z,101449.75
2023-04-19T20:12:13.733Z,101447.44
2023-04-19T20:14:40.718Z,101460.31
2023-04-19T20:17:07.466Z,101454.38
2023-04-19T20:19:34.273Z,101461.53
2023-04-19T20:22:00.841Z,101463.50
2023-04-19T20:24:27.650Z,101468.22
2023-04-19T20:26:54.176Z,101454.47
2023-04-19T20:29:20.804Z,101453.88
2023-04-19T20:31:47.452Z,101451.25
2023-04-19T20:34:13.949Z,101448.09
2023-04-19T20:36:40.688Z,101444.09
2023-04-19T20:39:09.664Z,101451.91
2023-04-19T20:41:36.647Z,101451.91
2023-04-19T20:44:04.548Z,101447.41
2023-04-19T20:46:31.155Z,101448.31
2023-04-19T20:48:57.654Z,101444.94
2023-04-19T20:51:24.133Z,101444.66
2023-04-19T20:53:50.708Z,101444.94
2023-04-19T20:56:17.173Z,101442.28
2023-04-19T20:58:43.726Z,101455.53
2023-04-19T21:01:11.644Z,101450.59
2023-04-19T21:03:38.389Z,101453.63
2023-04-19T21:06:05.514Z,101441.31
2023-04-19T21:08:31.971Z,101445.88
2023-04-19T21:10:58.533Z,101448.53
2023-04-19T21:13:25.067Z,101450.19
2023-04-19T21:15:51.556Z,101447.94
2023-04-19T21:18:18.338Z,101445.56
2023-04-19T21:20:44.963Z,101456.06
2023-04-19T21:23:11.513Z,101450.75
2023-04-19T21:25:37.982Z,101456.38
2023-04-19T21:28:04.566Z,101447.56
2023-04-19T21:30:31.594Z,101453.97
2023-04-19T21:32:58.187Z,101461.41
2023-04-19T21:35:24.778Z,101455.56
2023-04-19T21:37:51.287Z,101451.88
2023-04-19T21:40:17.747Z,101458.88
2023-04-19T21:42:44.262Z,101465.81
2023-04-19T21:45:18.630Z,101454.72
2023-04-19T21:47:45.781Z,101467.22
2023-04-19T21:50:12.638Z,101463.13
2023-04-19T21:52:39.275Z,101463.78
2023-04-19T21:55:06.525Z,101462.25
2023-04-19T21:57:32.971Z,101468.81
2023-04-19T21:59:59.491Z,101461.81
2023-04-19T22:02:26.302Z,101460.19
2023-04-19T22:04:53.912Z,101464.13
2023-04-19T22:07:20.815Z,101468.50
2023-04-19T22:09:47.672Z,101469.66
2023-04-19T22:12:14.458Z,101458.28
2023-04-19T22:14:41.474Z,101471.69
2023-04-19T22:17:09.037Z,101466.03
2023-04-19T22:19:35.600Z,101469.59
2023-04-19T22:22:02.115Z,101476.81
2023-04-19T22:24:28.611Z,101473.38
2023-04-19T22:26:55.108Z,101464.47
2023-04-19T22:29:21.766Z,101463.97
2023-04-19T22:31:48.485Z,101458.59
2023-04-19T22:34:14.962Z,101458.09
2023-04-19T22:36:41.522Z,101454.56
2023-04-19T22:39:09.027Z,101458.31
2023-04-19T22:41:35.628Z,101446.19
2023-04-19T22:44:02.222Z,101443.56
2023-04-19T22:46:28.862Z,101450.72
2023-04-19T22:48:58.040Z,101453.66
2023-04-19T22:51:24.673Z,101457.81
2023-04-19T22:53:51.222Z,101447.84
2023-04-19T22:56:17.865Z,101449.38
2023-04-19T22:58:44.588Z,101439.19
2023-04-19T23:01:11.295Z,101435.84
2023-04-19T23:03:37.801Z,101447.22
2023-04-19T23:06:04.586Z,101444.47
2023-04-19T23:08:31.066Z,101453.03
2023-04-19T23:10:57.510Z,101451.06
2023-04-19T23:13:23.971Z,101449.19
2023-04-19T23:15:50.616Z,101451.16
2023-04-19T23:18:17.730Z,101452.03
2023-04-19T23:20:44.245Z,101451.22
2023-04-19T23:23:11.521Z,101460.00
2023-04-19T23:25:38.008Z,101450.50
2023-04-19T23:28:04.502Z,101446.53
2023-04-19T23:30:32.111Z,101442.22
2023-04-19T23:32:58.731Z,101436.81
2023-04-19T23:35:25.403Z,101437.81
2023-04-19T23:37:51.963Z,101434.78
2023-04-19T23:40:18.614Z,101433.66
2023-04-19T23:42:45.347Z,101435.91
2023-04-19T23:45:12.015Z,101430.50
2023-04-19T23:47:38.501Z,101435.16
2023-04-19T23:50:05.475Z,101434.38
2023-04-19T23:52:31.973Z,101424.72
2023-04-19T23:54:58.461Z,101426.19
2023-04-19T23:57:24.944Z,101423.34
2023-04-19T23:59:51.438Z,101422.56
